Time;durP1;ratioP1;P1;durP2;ratioP2;P2;SDS_P1;SDS_P2;PMS_P1;PMS_P2;Temp;Humidity;BMP_temperature;BMP_pressure;BME280_temperature;BME280_humidity;BME280_pressure;Samples;Min_cycle;Max_cycle;Signal;HPM_P1;HPM_P2
2021/09/01 00:02:01;;;;;;;;;;;;;;;17.83;64.41;102923.69;5040950;28;19908;-68
2021/09/01 00:04:26;;;;;;;;;;;;;;;17.45;63.17;102925.16;5041495;28;20182;-68
2021/09/01 00:06:52;;;;;;;;;;;;;;;16.73;64.69;102922.34;5041701;28;19909;-68
2021/09/01 00:09:17;;;;;;;;;;;;;;;17.56;67.12;102930.03;5040849;28;19952;-68
2021/09/01 00:11:42;;;;;;;;;;;;;;;17.26;64.21;102914.34;5041815;28;19913;-68
2021/09/01 00:14:08;;;;;;;;;;;;;;;16.48;65.19;102915.19;5041708;28;19909;-68
2021/09/01 00:16:33;;;;;;;;;;;;;;;16.68;64.23;102919.84;5041515;28;19979;-68
2021/09/01 00:19:02;;;;;;;;;;;;;;;17.51;61.96;102914.31;5041686;28;19913;-68
2021/09/01 00:21:27;;;;;;;;;;;;;;;17.94;60.42;102915.38;5021640;28;19906;-68
2021/09/01 00:23:53;;;;;;;;;;;;;;;18.74;64.12;102908.63;5038996;28;20106;-68
2021/09/01 00:26:18;;;;;;;;;;;;;;;18.21;59.44;102920.53;5041092;28;19913;-68
2021/09/01 00:28:43;;;;;;;;;;;;;;;18.50;59.48;102913.13;5041814;28;19958;-68
2021/09/01 00:31:09;;;;;;;;;;;;;;;19.04;63.65;102914.41;5040591;28;20120;-68
2021/09/01 00:33:34;;;;;;;;;;;;;;;18.00;61.45;102914.25;5041152;28;19947;-68
2021/09/01 00:35:59;;;;;;;;;;;;;;;18.68;63.51;102911.50;5041566;28;19920;-68
2021/09/01 00:38:24;;;;;;;;;;;;;;;17.98;61.89;102916.97;5040551;28;19984;-68
2021/09/01 00:40:56;;;;;;;;;;;;;;;18.69;64.16;102919.41;5023619;28;19912;-68
2021/09/01 00:43:22;;;;;;;;;;;;;;;19.46;62.34;102921.41;5041167;28;19979;-68
2021/09/01 00:45:47;;;;;;;;;;;;;;;18.40;62.07;102917.97;5041153;28;19916;-68
2021/09/01 00:48:13;;;;;;;;;;;;;;;19.60;61.62;102917.28;5040002;28;19948;-68
2021/09/01 00:50:38;;;;;;;;;;;;;;;19.55;61.26;102921.00;5023715;28;19983;-68
2021/09/01 00:53:03;;;;;;;;;;;;;;;19.50;62.13;102917.69;5042174;28;19909;-68
2021/09/01 00:55:29;;;;;;;;;;;;;;;19.25;57.72;102919.72;5040873;28;19909;-68
2021/09/01 00:57:54;;;;;;;;;;;;;;;18.40;61.35;102917.97;5041789;28;20177;-68
2021/09/01 01:00:39;;;;;;;;;;;;;;;17.88;63.37;102915.59;5039832;28;19928;-68
2021/09/01 01:03:05;;;;;;;;;;;;;;;17.16;63.46;102915.59;5041813;28;19955;-68
2021/09/01 01:05:30;;;;;;;;;;;;;;;17.02;63.06;102910.78;5039966;28;19921;-68
2021/09/01 01:07:55;;;;;;;;;;;;;;;17.01;63.55;102906.44;5041735;28;19913;-68
2021/09/01 01:10:21;;;;;;;;;;;;;;;16.73;63.91;102912.59;5041792;28;19960;-68
2021/09/01 01:12:46;;;;;;;;;;;;;;;16.44;65.15;102908.28;5024533;28;19920;-68
2021/09/01 01:15:11;;;;;;;;;;;;;;;17.31;64.23;102908.88;5040982;28;19917;-68
2021/09/01 01:17:37;;;;;;;;;;;;;;;16.60;64.93;102909.50;5045295;28;19920;-68
2021/09/01 01:20:02;;;;;;;;;;;;;;;17.64;65.25;102912.94;5044101;28;20189;-68
2021/09/01 01:22:27;;;;;;;;;;;;;;;17.20;62.50;102917.22;5044290;28;19909;-68
2021/09/01 01:24:53;;;;;;;;;;;;;;;18.50;65.73;102902.53;5027320;28;19913;-68
2021/09/01 01:27:19;;;;;;;;;;;;;;;17.64;61.96;102914.72;5044559;28;19935;-68
2021/09/01 01:29:44;;;;;;;;;;;;;;;17.16;62.81;102913.81;5044771;28;19913;-68
2021/09/01 01:32:10;;;;;;;;;;;;;;;18.63;65.57;102909.06;5044729;28;19915;-68
2021/09/01 01:34:35;;;;;;;;;;;;;;;19.14;61.48;102909.59;5043243;28;19913;-68
2021/09/01 01:37:06;;;;;;;;;;;;;;;18.99;60.60;102911.09;5026678;28;19959;-68
2021/09/01 01:39:31;;;;;;;;;;;;;;;18.46;63.22;102908.91;5043797;28;19924;-68
2021/09/01 01:41:56;;;;;;;;;;;;;;;18.86;64.16;102910.75;5044554;28;20163;-68
2021/09/01 01:44:21;;;;;;;;;;;;;;;18.59;59.82;102902.16;5044228;28;19956;-68
2021/09/01 01:46:46;;;;;;;;;;;;;;;18.86;63.92;102913.41;5044381;28;19913;-68
2021/09/01 01:49:12;;;;;;;;;;;;;;;18.67;59.28;102909.81;5043945;28;19928;-68
2021/09/01 01:51:37;;;;;;;;;;;;;;;19.72;61.52;102904.28;5044354;28;19917;-68
2021/09/01 01:54:02;;;;;;;;;;;;;;;18.45;58.95;102902.75;5043082;28;20219;-69
2021/09/01 01:56:28;;;;;;;;;;;;;;;18.91;64.51;102900.81;5043811;28;20168;-68
2021/09/01 01:58:53;;;;;;;;;;;;;;;19.53;58.43;102909.56;5044536;28;19936;-68
2021/09/01 02:01:18;;;;;;;;;;;;;;;19.48;61.18;102900.06;5043511;28;19913;-68
2021/09/01 02:03:43;;;;;;;;;;;;;;;19.49;62.63;102907.13;5044474;28;19917;-68
2021/09/01 02:06:09;;;;;;;;;;;;;;;19.45;60.79;102897.59;5043908;28;20108;-68
2021/09/01 02:08:34;;;;;;;;;;;;;;;18.27;59.34;102898.19;5042764;28;19917;-68
2021/09/01 02:10:59;;;;;;;;;;;;;;;18.51;65.29;102899.81;5044040;28;20220;-69
2021/09/01 02:13:25;;;;;;;;;;;;;;;17.88;61.25;102902.34;5043918;28;20132;-68
2021/09/01 02:15:50;;;;;;;;;;;;;;;18.32;63.25;102906.78;5044042;28;19970;-68
2021/09/01 02:18:15;;;;;;;;;;;;;;;18.55;59.52;102905.84;5043257;28;19916;-68
2021/09/01 02:20:41;;;;;;;;;;;;;;;18.77;64.72;102908.47;5043934;28;19912;-68
2021/09/01 02:23:06;;;;;;;;;;;;;;;17.98;59.94;102905.50;5041355;28;19916;-68
2021/09/01 02:25:31;;;;;;;;;;;;;;;18.16;59.28;102906.56;5042030;28;20101;-68
2021/09/01 02:27:57;;;;;;;;;;;;;;;18.65;59.31;102906.34;5043923;28;19920;-68
2021/09/01 02:30:22;;;;;;;;;;;;;;;19.54;62.43;102913.09;5043029;28;19913;-68
2021/09/01 02:32:48;;;;;;;;;;;;;;;17.49;60.71;102902.91;5043832;28;19923;-68
2021/09/01 02:35:13;;;;;;;;;;;;;;;17.06;62.11;102904.44;5042718;28;19932;-68
2021/09/01 02:37:38;;;;;;;;;;;;;;;17.31;65.98;102909.75;5043222;28;20267;-68
2021/09/01 02:40:04;;;;;;;;;;;;;;;17.06;62.43;102908.00;5042645;28;20213;-68
2021/09/01 02:42:29;;;;;;;;;;;;;;;17.02;63.17;102908.13;5042912;28;20192;-68
2021/09/01 02:44:55;;;;;;;;;;;;;;;17.17;62.73;102912.00;5043527;28;19917;-68
2021/09/01 02:47:20;;;;;;;;;;;;;;;17.41;62.32;102907.66;5042157;28;19920;-68
2021/09/01 02:49:45;;;;;;;;;;;;;;;17.96;67.67;102908.22;5043541;28;19913;-68
2021/09/01 02:52:10;;;;;;;;;;;;;;;17.07;62.47;102912.34;5043454;28;20208;-68
2021/09/01 02:54:36;;;;;;;;;;;;;;;16.66;64.65;102914.63;5025410;28;19909;-68
2021/09/01 02:57:01;;;;;;;;;;;;;;;16.49;65.71;102903.72;5043453;28;19983;-68
2021/09/01 02:59:26;;;;;;;;;;;;;;;16.87;63.30;102912.19;5042256;28;19920;-68
2021/09/01 03:01:51;;;;;;;;;;;;;;;16.51;64.68;102913.31;5043100;28;19909;-67
2021/09/01 03:04:17;;;;;;;;;;;;;;;16.40;64.77;102912.81;5042162;28;19920;-68
2021/09/01 03:06:42;;;;;;;;;;;;;;;16.75;63.21;102908.13;5042929;28;19928;-68
2021/09/01 03:09:07;;;;;;;;;;;;;;;16.40;66.23;102910.16;5042852;28;19948;-68
2021/09/01 03:11:33;;;;;;;;;;;;;;;16.42;65.38;102896.91;5042629;28;20192;-68
2021/09/01 03:13:58;;;;;;;;;;;;;;;16.16;68.68;102906.53;5042717;28;19913;-68
2021/09/01 03:16:23;;;;;;;;;;;;;;;16.19;67.67;102901.16;5041187;28;19919;-68
2021/09/01 03:18:48;;;;;;;;;;;;;;;16.17;69.71;102903.00;5042790;28;19912;-68
2021/09/01 03:21:14;;;;;;;;;;;;;;;16.07;69.89;102901.53;5042132;28;19988;-68
2021/09/01 03:23:39;;;;;;;;;;;;;;;16.04;70.15;102897.19;5042169;28;20227;-68
2021/09/01 03:26:04;;;;;;;;;;;;;;;16.04;69.01;102901.63;5042026;28;19909;-68
2021/09/01 03:28:30;;;;;;;;;;;;;;;16.01;68.92;102897.31;5040251;28;19916;-68
2021/09/01 03:30:55;;;;;;;;;;;;;;;15.99;68.46;102891.22;5040753;28;20007;-68
2021/09/01 03:33:20;;;;;;;;;;;;;;;16.05;69.24;102898.94;5040351;28;19992;-68
2021/09/01 03:35:45;;;;;;;;;;;;;;;15.96;70.49;102893.94;5040849;28;19917;-68
2021/09/01 03:38:11;;;;;;;;;;;;;;;15.91;71.32;102895.84;5040952;28;19953;-68
2021/09/01 03:40:36;;;;;;;;;;;;;;;15.90;71.08;102902.91;5019645;28;19917;-68
2021/09/01 03:43:01;;;;;;;;;;;;;;;15.90;71.51;102899.41;5035445;28;19916;-68
2021/09/01 03:45:26;;;;;;;;;;;;;;;15.95;71.59;102901.91;5041583;28;19916;-68
2021/09/01 03:47:52;;;;;;;;;;;;;;;15.89;71.36;102902.97;5042216;28;20079;-68
2021/09/01 03:50:17;;;;;;;;;;;;;;;15.73;72.48;102895.47;5041480;28;19996;-68
2021/09/01 03:52:42;;;;;;;;;;;;;;;15.84;72.06;102900.44;5042542;28;19947;-68
2021/09/01 03:55:08;;;;;;;;;;;;;;;15.81;72.35;102900.56;5042063;28;19909;-68
2021/09/01 03:57:34;;;;;;;;;;;;;;;15.78;72.12;102899.78;5041833;28;20299;-68
2021/09/01 03:59:59;;;;;;;;;;;;;;;15.68;72.26;102900.03;5041813;28;19917;-68
2021/09/01 04:02:25;;;;;;;;;;;;;;;15.72;72.53;102895.53;5041291;28;19913;-68
2021/09/01 04:04:50;;;;;;;;;;;;;;;15.80;73.21;102905.88;5041890;28;19909;-68
2021/09/01 04:07:15;;;;;;;;;;;;;;;15.69;72.53;102904.38;5041117;28;19912;-68
2021/09/01 04:09:41;;;;;;;;;;;;;;;15.69;72.75;102908.81;5021244;28;19926;-68
2021/09/01 04:12:06;;;;;;;;;;;;;;;15.76;71.23;102907.75;5022369;28;19909;-68
2021/09/01 04:14:31;;;;;;;;;;;;;;;15.64;72.67;102913.34;5036447;28;19925;-68
2021/09/01 04:16:57;;;;;;;;;;;;;;;15.73;72.71;102906.03;5041659;28;19917;-68
2021/09/01 04:19:22;;;;;;;;;;;;;;;15.69;71.99;102903.53;5041104;28;19913;-68
2021/09/01 04:21:47;;;;;;;;;;;;;;;15.62;71.06;102896.69;5039188;28;19913;-68
2021/09/01 04:24:12;;;;;;;;;;;;;;;15.69;74.67;102892.97;5041212;28;19959;-68
2021/09/01 04:26:38;;;;;;;;;;;;;;;15.65;74.17;102900.09;5041574;28;20228;-68
2021/09/01 04:29:03;;;;;;;;;;;;;;;15.55;72.66;102899.53;5041735;28;20108;-68
2021/09/01 04:31:28;;;;;;;;;;;;;;;15.59;74.28;102900.28;5041190;28;20201;-68
2021/09/01 04:33:54;;;;;;;;;;;;;;;15.73;73.81;102900.75;5041389;28;19980;-68
2021/09/01 04:36:19;;;;;;;;;;;;;;;15.57;74.91;102903.88;5040946;28;19921;-68
2021/09/01 04:38:44;;;;;;;;;;;;;;;15.49;73.66;102904.09;5041112;28;19913;-68
2021/09/01 04:41:09;;;;;;;;;;;;;;;15.48;73.57;102907.63;5040498;28;19914;-68
2021/09/01 04:43:35;;;;;;;;;;;;;;;15.45;74.63;102903.31;5022800;28;19916;-68
2021/09/01 04:46:00;;;;;;;;;;;;;;;15.43;75.34;102904.28;5043224;28;19980;-68
2021/09/01 04:48:26;;;;;;;;;;;;;;;15.51;73.33;102908.41;5044600;28;19916;-68
2021/09/01 04:50:52;;;;;;;;;;;;;;;15.57;72.27;102909.16;5045556;28;20082;-68
2021/09/01 04:53:17;;;;;;;;;;;;;;;15.54;71.79;102900.41;5044100;28;19947;-68
2021/09/01 04:55:42;;;;;;;;;;;;;;;15.59;72.32;102907.34;5045326;28;20117;-68
2021/09/01 04:58:08;;;;;;;;;;;;;;;15.58;70.00;102902.97;5045635;28;19908;-68
2021/09/01 05:00:34;;;;;;;;;;;;;;;15.75;70.73;102908.66;5044737;28;19920;-68
2021/09/01 05:02:59;;;;;;;;;;;;;;;15.44;73.22;102909.50;5045773;28;19917;-68
2021/09/01 05:05:24;;;;;;;;;;;;;;;15.33;74.90;102906.31;5024594;28;19960;-68
2021/09/01 05:07:50;;;;;;;;;;;;;;;15.10;76.86;102905.16;5045122;28;19909;-68
2021/09/01 05:10:15;;;;;;;;;;;;;;;15.15;77.06;102905.03;5044380;28;19926;-68
2021/09/01 05:12:42;;;;;;;;;;;;;;;15.34;76.48;102910.69;5045282;28;19913;-68
2021/09/01 05:15:08;;;;;;;;;;;;;;;16.10;72.84;102904.09;5044449;28;19925;-67
2021/09/01 05:17:33;;;;;;;;;;;;;;;15.69;75.20;102914.94;5042558;28;19982;-67
2021/09/01 05:19:58;;;;;;;;;;;;;;;15.71;74.50;102909.63;5043544;28;19920;-67
2021/09/01 05:22:24;;;;;;;;;;;;;;;15.59;74.88;102908.22;5043282;28;19916;-67
2021/09/01 05:24:49;;;;;;;;;;;;;;;15.81;76.73;102913.75;5044464;28;19909;-67
2021/09/01 05:27:18;;;;;;;;;;;;;;;18.30;67.66;102916.59;5037310;28;19924;-67
2021/09/01 05:29:44;;;;;;;;;;;;;;;18.32;67.43;102920.94;5036366;28;19945;-67
2021/09/01 05:32:20;;;;;;;;;;;;;;;18.31;67.40;102923.66;5019316;28;19920;-67
2021/09/01 05:34:46;;;;;;;;;;;;;;;18.40;66.77;102926.78;5017004;28;19917;-67
2021/09/01 05:37:13;;;;;;;;;;;;;;;18.46;66.34;102928.31;5033404;28;19971;-67
2021/09/01 05:39:39;;;;;;;;;;;;;;;18.67;66.23;102923.06;5036976;28;19916;-67
2021/09/01 05:42:05;;;;;;;;;;;;;;;18.94;65.29;102929.03;5042257;28;19927;-67
2021/09/01 05:44:30;;;;;;;;;;;;;;;18.75;64.55;102926.25;5024693;28;19917;-67
2021/09/01 05:46:55;;;;;;;;;;;;;;;18.54;64.49;102923.56;5024978;28;20255;-67
2021/09/01 05:49:22;;;;;;;;;;;;;;;18.77;65.79;102925.28;5037947;28;19921;-67
2021/09/01 05:51:47;;;;;;;;;;;;;;;18.83;65.03;102920.66;5037640;28;20208;-67
2021/09/01 05:54:12;;;;;;;;;;;;;;;18.51;65.83;102913.09;5026151;28;19916;-67
2021/09/01 05:56:39;;;;;;;;;;;;;;;18.18;63.94;102924.13;5045125;28;19920;-67
2021/09/01 05:59:07;;;;;;;;;;;;;;;17.12;66.41;102925.44;5047119;28;20123;-67
2021/09/01 06:01:32;;;;;;;;;;;;;;;18.53;66.12;102916.53;5051089;28;19908;-67
2021/09/01 06:03:59;;;;;;;;;;;;;;;19.01;64.73;102926.97;5043401;28;20238;-67
2021/09/01 06:06:24;;;;;;;;;;;;;;;19.04;64.51;102927.69;5041869;28;19916;-67
2021/09/01 06:08:49;;;;;;;;;;;;;;;19.09;64.45;102922.19;5053288;28;20172;-67
2021/09/01 06:11:14;;;;;;;;;;;;;;;19.25;64.01;102925.91;5050038;28;20243;-67
2021/09/01 06:13:40;;;;;;;;;;;;;;;18.84;64.78;102933.00;5045732;28;19992;-67
2021/09/01 06:16:05;;;;;;;;;;;;;;;19.33;63.68;102925.56;5033230;28;19920;-68
2021/09/01 06:18:30;;;;;;;;;;;;;;;19.77;62.71;102929.81;5038405;28;19916;-68
2021/09/01 06:20:56;;;;;;;;;;;;;;;20.00;62.06;102932.25;5035366;28;19919;-68
2021/09/01 06:23:21;;;;;;;;;;;;;;;20.17;61.93;102933.22;5024060;28;19909;-68
2021/09/01 06:25:46;;;;;;;;;;;;;;;20.00;62.61;102932.25;5039665;28;19913;-67
2021/09/01 06:28:12;;;;;;;;;;;;;;;20.24;62.14;102929.34;5041984;28;19920;-68
2021/09/01 06:30:37;;;;;;;;;;;;;;;20.02;62.97;102929.53;5041878;28;19943;-68
2021/09/01 06:33:02;;;;;;;;;;;;;;;19.72;63.82;102927.34;5039508;28;19920;-69
2021/09/01 06:35:28;;;;;;;;;;;;;;;19.66;64.73;102932.94;5033678;28;19915;-68
2021/09/01 06:37:53;;;;;;;;;;;;;;;19.30;65.40;102926.56;5045974;28;19912;-68
2021/09/01 06:40:18;;;;;;;;;;;;;;;20.33;62.67;102937.72;5047130;28;20188;-68
2021/09/01 06:42:44;;;;;;;;;;;;;;;20.57;61.97;102944.59;5047779;28;19916;-68
2021/09/01 06:45:09;;;;;;;;;;;;;;;20.62;61.86;102940.78;5047587;28;19920;-67
2021/09/01 06:47:41;;;;;;;;;;;;;;;20.66;61.68;102941.50;5042360;28;19980;-68
2021/09/01 06:50:07;;;;;;;;;;;;;;;20.75;61.36;102938.38;5041133;28;19996;-68
2021/09/01 06:52:32;;;;;;;;;;;;;;;20.64;62.04;102940.72;5039329;28;19928;-67
2021/09/01 06:54:58;;;;;;;;;;;;;;;20.75;61.51;102937.50;5035675;28;19905;-67
2021/09/01 06:57:23;;;;;;;;;;;;;;;20.80;61.61;102940.81;5034869;28;19932;-67
2021/09/01 06:59:48;;;;;;;;;;;;;;;20.83;61.93;102937.97;5030099;28;19956;-67
2021/09/01 07:02:13;;;;;;;;;;;;;;;20.87;61.56;102935.09;5016085;28;19963;-67
2021/09/01 07:04:39;;;;;;;;;;;;;;;20.85;61.71;102938.78;5035469;28;19916;-67
2021/09/01 07:07:04;;;;;;;;;;;;;;;20.93;61.68;102938.38;5038055;28;19913;-67
2021/09/01 07:09:29;;;;;;;;;;;;;;;20.94;61.48;102934.75;5031329;28;19925;-67
2021/09/01 07:11:54;;;;;;;;;;;;;;;20.95;61.49;102940.00;5042021;28;19969;-67
2021/09/01 07:14:20;;;;;;;;;;;;;;;21.02;61.25;102943.22;5039271;28;20135;-68
2021/09/01 07:16:45;;;;;;;;;;;;;;;20.74;62.02;102944.66;5026111;28;19920;-68
2021/09/01 07:19:10;;;;;;;;;;;;;;;20.97;61.40;102940.78;5041387;28;19913;-68
2021/09/01 07:21:35;;;;;;;;;;;;;;;20.95;61.88;102952.47;5038229;28;19909;-67
2021/09/01 07:24:01;;;;;;;;;;;;;;;21.08;61.20;102951.78;5028884;28;19913;-67
2021/09/01 07:26:26;;;;;;;;;;;;;;;21.07;61.14;102951.84;5034569;28;19941;-66
2021/09/01 07:28:51;;;;;;;;;;;;;;;21.09;61.31;102957.94;5042353;28;19909;-68
2021/09/01 07:31:16;;;;;;;;;;;;;;;21.14;61.25;102963.03;5045753;28;19928;-68
2021/09/01 07:33:42;;;;;;;;;;;;;;;21.21;60.79;102967.09;5040514;28;20141;-68
2021/09/01 07:36:07;;;;;;;;;;;;;;;21.25;60.74;102972.19;5035184;28;20407;-68
2021/09/01 07:38:32;;;;;;;;;;;;;;;21.23;60.78;102973.22;5022621;28;19924;-67
2021/09/01 07:40:57;;;;;;;;;;;;;;;21.22;60.56;102977.69;5036486;28;19920;-68
2021/09/01 07:43:26;;;;;;;;;;;;;;;20.97;60.77;102974.56;5044377;28;19928;-68
2021/09/01 07:45:51;;;;;;;;;;;;;;;20.85;59.91;102981.38;5033359;28;19921;-67
2021/09/01 07:48:17;;;;;;;;;;;;;;;20.83;61.07;102981.47;5039801;28;19917;-68
2021/09/01 07:50:42;;;;;;;;;;;;;;;20.90;61.72;102985.53;5044257;28;19917;-68
2021/09/01 07:53:07;;;;;;;;;;;;;;;20.44;57.85;102977.13;5047667;28;20192;-67
2021/09/01 07:55:33;;;;;;;;;;;;;;;19.85;58.34;102983.50;5045633;28;19917;-66
2021/09/01 07:57:58;;;;;;;;;;;;;;;19.71;58.94;102992.91;5041991;28;19917;-67
2021/09/01 08:00:23;;;;;;;;;;;;;;;19.48;58.47;102991.31;5044461;28;19920;-67
2021/09/01 08:02:51;;;;;;;;;;;;;;;19.34;65.17;102996.38;5039791;28;20197;-68
2021/09/01 08:05:16;;;;;;;;;;;;;;;19.04;60.40;102991.41;5040962;28;20108;-67
2021/09/01 08:07:42;;;;;;;;;;;;;;;18.75;61.70;102998.78;5036963;28;19908;-67
2021/09/01 08:10:07;;;;;;;;;;;;;;;18.94;61.91;102995.41;5037131;28;19925;-68
2021/09/01 08:12:32;;;;;;;;;;;;;;;19.04;67.46;103001.19;5024877;28;19913;-69
2021/09/01 08:14:58;;;;;;;;;;;;;;;19.55;60.86;103007.81;5033283;28;19917;-68
2021/09/01 08:17:23;;;;;;;;;;;;;;;19.58;60.91;103010.34;5035620;28;19971;-68
2021/09/01 08:19:48;;;;;;;;;;;;;;;19.80;65.18;103002.31;5038831;28;19921;-69
2021/09/01 08:22:13;;;;;;;;;;;;;;;20.65;61.31;103017.84;5033407;28;19917;-69
2021/09/01 08:24:39;;;;;;;;;;;;;;;20.43;63.42;103007.34;5040647;28;19979;-68
2021/09/01 08:27:05;;;;;;;;;;;;;;;20.29;56.85;103005.34;5034577;28;19913;-68
2021/09/01 08:29:30;;;;;;;;;;;;;;;20.58;59.08;103011.06;5034877;28;19917;-68
2021/09/01 08:31:55;;;;;;;;;;;;;;;20.66;62.49;103010.72;5036606;28;20105;-67
2021/09/01 08:34:21;;;;;;;;;;;;;;;19.88;63.10;103002.84;5043814;28;19916;-67
2021/09/01 08:36:46;;;;;;;;;;;;;;;20.59;60.39;103017.22;5043261;28;19913;-67
2021/09/01 08:39:11;;;;;;;;;;;;;;;20.48;57.29;103018.63;5037299;28;19909;-67
2021/09/01 08:41:37;;;;;;;;;;;;;;;21.00;61.09;103025.03;5042901;28;20136;-67
2021/09/01 08:44:02;;;;;;;;;;;;;;;21.42;60.12;103016.59;5035616;28;19922;-67
2021/09/01 08:46:29;;;;;;;;;;;;;;;21.49;59.55;103027.00;5039101;28;19967;-67
2021/09/01 08:48:54;;;;;;;;;;;;;;;21.10;60.17;103020.94;5037735;28;19921;-69
2021/09/01 08:51:20;;;;;;;;;;;;;;;21.46;59.44;103020.00;5016182;28;19956;-67
2021/09/01 08:53:46;;;;;;;;;;;;;;;21.67;59.30;103021.53;5010004;28;20089;-67
2021/09/01 08:56:11;;;;;;;;;;;;;;;21.34;59.53;103028.59;5030187;28;19947;-67
2021/09/01 08:58:37;;;;;;;;;;;;;;;21.56;58.90;103029.25;5037816;28;19906;-68
2021/09/01 09:01:02;;;;;;;;;;;;;;;21.15;57.90;103026.03;5036964;28;20003;-67
2021/09/01 09:03:30;;;;;;;;;;;;;;;21.56;58.99;103029.25;5039171;28;19927;-67
2021/09/01 09:06:01;;;;;;;;;;;;;;;20.88;57.36;103032.69;5037946;28;19992;-67
2021/09/01 09:08:29;;;;;;;;;;;;;;;20.92;60.86;103033.41;5047171;28;19912;-68
2021/09/01 09:10:55;;;;;;;;;;;;;;;21.57;58.83;103020.28;5042704;28;20104;-67
2021/09/01 09:13:28;;;;;;;;;;;;;;;21.08;57.34;103017.47;5044227;28;20007;-67
2021/09/01 09:16:07;;;;;;;;;;;;;;;21.86;58.67;103025.88;5042873;28;19909;-68
2021/09/01 09:18:32;;;;;;;;;;;;;;;21.88;58.28;103017.81;5049518;28;20328;-68
2021/09/01 09:21:07;;;;;;;;;;;;;;;21.63;56.05;103017.31;5035587;28;19917;-67
2021/09/01 09:23:33;;;;;;;;;;;;;;;21.93;58.48;103023.75;5041457;28;20153;-68
2021/09/01 09:25:58;;;;;;;;;;;;;;;22.26;57.42;103021.06;5045154;28;19909;-68
2021/09/01 09:28:23;;;;;;;;;;;;;;;22.47;55.66;103028.81;5034163;28;19947;-68
2021/09/01 09:30:48;;;;;;;;;;;;;;;22.47;56.65;103021.66;5045310;28;19912;-68
2021/09/01 09:33:14;;;;;;;;;;;;;;;22.35;53.96;103025.03;5046847;28;19956;-68
2021/09/01 09:35:59;;;;;;;;;;;;;;;22.42;56.43;103026.41;5050866;28;19909;-68
2021/09/01 09:38:27;;;;;;;;;;;;;;;22.72;56.14;103034.47;5044226;28;19921;-68
2021/09/01 09:40:52;;;;;;;;;;;;;;;22.56;55.16;103029.16;5049492;28;20205;-69
2021/09/01 09:43:18;;;;;;;;;;;;;;;22.31;57.60;103032.34;5046617;28;19916;-68
2021/09/01 09:45:44;;;;;;;;;;;;;;;22.50;57.11;103028.63;5047805;28;19924;-69
2021/09/01 09:48:09;;;;;;;;;;;;;;;22.43;57.29;103030.81;5044065;28;19925;-68
2021/09/01 09:50:34;;;;;;;;;;;;;;;22.35;57.20;103027.69;5043592;28;19944;-69
2021/09/01 09:53:00;;;;;;;;;;;;;;;21.80;53.13;103024.41;5041101;28;20326;-68
2021/09/01 09:55:25;;;;;;;;;;;;;;;20.94;60.16;103026.19;5040694;28;19916;-67
2021/09/01 09:57:57;;;;;;;;;;;;;;;22.12;57.58;103020.91;5039937;28;19913;-68
2021/09/01 10:00:23;;;;;;;;;;;;;;;21.46;53.19;103023.53;5042825;28;20145;-68
2021/09/01 10:02:48;;;;;;;;;;;;;;;22.73;55.53;103019.31;5042652;28;19909;-69
2021/09/01 10:05:14;;;;;;;;;;;;;;;23.18;54.85;103014.91;5041104;28;19947;-69
2021/09/01 10:07:39;;;;;;;;;;;;;;;23.03;55.30;103013.09;5039321;28;19947;-69
2021/09/01 10:10:05;;;;;;;;;;;;;;;23.15;54.93;103005.25;5043253;28;19916;-70
2021/09/01 10:12:30;;;;;;;;;;;;;;;23.16;50.22;103001.63;5041883;28;20132;-69
2021/09/01 10:14:56;;;;;;;;;;;;;;;23.44;54.29;103007.97;5039602;28;19939;-69
2021/09/01 10:17:21;;;;;;;;;;;;;;;23.60;51.49;102999.00;5024635;28;19929;-70
2021/09/01 10:19:46;;;;;;;;;;;;;;;23.45;54.00;102999.00;5043961;28;19923;-70
2021/09/01 10:22:12;;;;;;;;;;;;;;;23.48;53.64;103000.63;5038400;28;19928;-70
2021/09/01 10:24:37;;;;;;;;;;;;;;;23.40;54.43;103000.25;5031341;28;19909;-70
2021/09/01 10:27:03;;;;;;;;;;;;;;;22.27;50.29;102996.09;5047475;28;19909;-70
2021/09/01 10:29:40;;;;;;;;;;;;;;;23.43;53.56;102992.91;5044856;28;19908;-69
2021/09/01 10:32:19;;;;;;;;;;;;;;;20.90;52.41;102993.53;5037138;28;19952;-69
2021/09/01 10:34:45;;;;;;;;;;;;;;;20.82;51.64;102993.03;5040605;28;19951;-70
2021/09/01 10:37:11;;;;;;;;;;;;;;;20.64;53.42;102985.97;5045301;28;19915;-70
2021/09/01 10:39:37;;;;;;;;;;;;;;;22.54;56.33;102980.31;5045363;28;19924;-69
2021/09/01 10:42:21;;;;;;;;;;;;;;;22.38;52.52;102991.00;5044277;28;20209;-69
2021/09/01 10:44:47;;;;;;;;;;;;;;;22.79;55.38;102990.44;5050329;28;19909;-69
2021/09/01 10:47:12;;;;;;;;;;;;;;;22.97;55.20;102987.59;5027557;28;20082;-70
2021/09/01 10:49:57;;;;;;;;;;;;;;;22.60;49.28;102990.63;5038980;28;20180;-69
2021/09/01 10:52:22;;;;;;;;;;;;;;;21.04;57.24;102986.63;5038441;28;19980;-69
2021/09/01 10:54:50;;;;;;;;;;;;;;;22.30;50.62;102979.03;5048098;28;19905;-69
2021/09/01 10:57:25;;;;;;;;;;;;;;;21.25;51.17;102985.53;5042710;28;19917;-69
2021/09/01 10:59:50;;;;;;;;;;;;;;;21.93;57.45;102975.75;5049708;28;19912;-69
2021/09/01 11:02:21;;;;;;;;;;;;;;;22.65;55.94;102977.03;5039966;28;19964;-70
2021/09/01 11:04:47;;;;;;;;;;;;;;;20.90;52.22;102977.53;5048309;28;20202;-69
2021/09/01 11:07:17;;;;;;;;;;;;;;;19.54;56.08;102976.88;5040121;28;19921;-69
2021/09/01 11:09:43;;;;;;;;;;;;;;;21.62;57.68;102980.06;5045503;28;19913;-68
2021/09/01 11:12:08;;;;;;;;;;;;;;;22.18;56.95;102968.09;5044502;28;19913;-70
2021/09/01 11:14:36;;;;;;;;;;;;;;;21.92;51.63;102974.00;5041009;28;20005;-69
2021/09/01 11:17:01;;;;;;;;;;;;;;;22.69;55.58;102972.38;5041256;28;19948;-68
2021/09/01 11:19:27;;;;;;;;;;;;;;;22.71;55.10;102970.47;5013468;28;19924;-69
2021/09/01 11:21:53;;;;;;;;;;;;;;;22.86;54.20;102968.69;5021446;28;19937;-69
2021/09/01 11:24:19;;;;;;;;;;;;;;;22.85;54.79;102972.31;5033711;28;19924;-69
2021/09/01 11:26:44;;;;;;;;;;;;;;;21.74;57.70;102971.41;5034824;28;19924;-69
2021/09/01 11:29:11;;;;;;;;;;;;;;;22.56;56.02;102978.41;5036667;28;19984;-69
2021/09/01 11:31:45;;;;;;;;;;;;;;;;;;5024131;28;19971;-69
2021/09/01 11:34:12;;;;;;;;;;;;;;;22.88;54.87;102978.31;5037174;28;19916;-68
2021/09/01 11:36:37;;;;;;;;;;;;;;;22.39;52.98;102983.84;5037204;28;19916;-68
2021/09/01 11:39:02;;;;;;;;;;;;;;;21.21;54.89;102981.31;5036696;28;19909;-69
2021/09/01 11:41:28;;;;;;;;;;;;;;;21.92;52.54;102971.34;5040271;28;19917;-68
2021/09/01 11:43:54;;;;;;;;;;;;;;;20.75;56.15;102980.97;5035294;28;19913;-69
2021/09/01 11:46:20;;;;;;;;;;;;;;;21.91;52.61;102967.81;5044620;28;19947;-68
2021/09/01 11:48:45;;;;;;;;;;;;;;;22.03;52.20;102972.47;5026684;28;19921;-68
2021/09/01 11:51:10;;;;;;;;;;;;;;;20.50;53.26;102974.19;5043794;28;19927;-68
2021/09/01 11:53:39;;;;;;;;;;;;;;;21.81;52.20;102972.81;5038472;28;20311;-68
2021/09/01 11:56:05;;;;;;;;;;;;;;;21.91;51.74;102981.16;5033443;28;19987;-69
2021/09/01 11:58:30;;;;;;;;;;;;;;;21.96;51.77;102978.25;5034018;28;19991;-68
2021/09/01 12:00:59;;;;;;;;;;;;;;;21.78;52.50;102980.13;5037146;28;19983;-69
2021/09/01 12:03:24;;;;;;;;;;;;;;;21.82;52.14;102981.66;5023289;28;20069;-68
2021/09/01 12:05:49;;;;;;;;;;;;;;;21.77;52.41;102981.03;5033871;28;20063;-69
2021/09/01 12:08:15;;;;;;;;;;;;;;;21.80;53.81;102983.56;5022398;28;19905;-68
2021/09/01 12:10:40;;;;;;;;;;;;;;;21.69;52.88;102984.13;5038965;28;19913;-68
2021/09/01 12:13:06;;;;;;;;;;;;;;;21.75;53.17;102988.28;5038434;28;19980;-68
2021/09/01 12:15:31;;;;;;;;;;;;;;;21.81;52.95;102979.94;5037417;28;19931;-69
2021/09/01 12:18:03;;;;;;;;;;;;;;;21.63;53.58;102988.00;5039290;28;20223;-68
2021/09/01 12:20:28;;;;;;;;;;;;;;;21.64;53.72;102984.38;5027970;28;20218;-71
2021/09/01 12:22:53;;;;;;;;;;;;;;;21.84;53.56;102980.63;5037375;28;19952;-68
2021/09/01 12:25:23;;;;;;;;;;;;;;;22.11;53.15;102980.03;5006788;28;19972;-68
2021/09/01 12:27:59;;;;;;;;;;;;;;;22.19;53.24;102969.81;5031086;28;19952;-69
2021/09/01 12:30:25;;;;;;;;;;;;;;;22.32;52.51;102978.03;5014702;28;20093;-68
2021/09/01 12:32:55;;;;;;;;;;;;;;;22.40;53.09;102975.75;5023876;28;19920;-69